createdAt,value
2018-11-21T00:02:42.558Z,6.80
2018-11-21T00:06:53.790Z,6.70
2018-11-21T00:11:04.870Z,6.70
2018-11-21T00:15:16.083Z,6.60
2018-11-21T00:19:27.273Z,6.50
2018-11-21T00:23:38.213Z,6.40
2018-11-21T00:27:50.338Z,6.40
2018-11-21T00:32:01.320Z,6.30
2018-11-21T00:36:12.268Z,6.30
2018-11-21T00:40:23.317Z,6.30
2018-11-21T00:44:34.499Z,6.40
2018-11-21T00:48:45.519Z,6.40
2018-11-21T00:52:56.442Z,6.40
2018-11-21T00:57:07.888Z,6.40
2018-11-21T01:01:18.977Z,6.50
2018-11-21T01:05:29.901Z,6.50
2018-11-21T01:09:41.027Z,6.60
2018-11-21T01:13:52.150Z,6.80
2018-11-21T01:18:05.060Z,6.80
2018-11-21T01:22:16.327Z,6.80
2018-11-21T01:26:27.424Z,6.70
2018-11-21T01:30:39.534Z,6.70
2018-11-21T01:34:50.515Z,6.80
2018-11-21T01:39:02.516Z,6.70
2018-11-21T01:43:13.351Z,6.70
2018-11-21T01:47:24.313Z,6.50
2018-11-21T01:51:35.121Z,6.30
2018-11-21T01:55:45.992Z,6.30
2018-11-21T01:59:57.320Z,6.30
2018-11-21T02:04:08.402Z,6.40
2018-11-21T02:08:19.528Z,6.40
2018-11-21T02:12:30.332Z,6.30
2018-11-21T02:16:42.338Z,6.20
2018-11-21T02:20:53.324Z,6.00
2018-11-21T02:25:04.646Z,6.00
2018-11-21T02:29:16.955Z,6.10
2018-11-21T02:33:27.957Z,6.20
2018-11-21T02:37:39.030Z,6.10
2018-11-21T02:41:50.070Z,6.00
2018-11-21T02:46:01.225Z,6.00
2018-11-21T02:50:12.347Z,6.00
2018-11-21T02:54:23.384Z,6.00
2018-11-21T02:58:35.480Z,6.00
2018-11-21T03:02:46.459Z,6.00
2018-11-21T03:06:57.475Z,5.90
2018-11-21T03:11:08.541Z,5.90
2018-11-21T03:15:19.620Z,5.90
2018-11-21T03:19:30.813Z,6.00
2018-11-21T03:23:41.952Z,6.10
2018-11-21T03:27:52.904Z,6.10
2018-11-21T03:32:04.143Z,6.00
2018-11-21T03:36:16.347Z,6.00
2018-11-21T03:40:27.348Z,5.90
2018-11-21T03:44:38.338Z,6.00
2018-11-21T03:48:49.314Z,5.90
2018-11-21T03:53:00.312Z,5.90
2018-11-21T03:57:11.573Z,5.70
2018-11-21T04:01:22.604Z,5.70
2018-11-21T04:05:33.542Z,5.70
2018-11-21T04:09:44.844Z,5.80
2018-11-21T04:13:56.069Z,5.80
2018-11-21T04:18:07.504Z,5.70
2018-11-21T04:22:18.354Z,5.70
2018-11-21T04:26:29.636Z,5.70
2018-11-21T04:30:40.763Z,5.80
2018-11-21T04:34:51.745Z,5.90
2018-11-21T04:39:04.572Z,5.70
2018-11-21T04:43:15.764Z,5.60
2018-11-21T04:47:26.853Z,5.70
2018-11-21T04:51:37.829Z,5.80
2018-11-21T04:55:48.933Z,5.80
2018-11-21T05:00:00.291Z,5.90
2018-11-21T05:04:11.185Z,5.80
2018-11-21T05:08:23.188Z,5.90
2018-11-21T05:12:34.593Z,5.90
2018-11-21T05:16:45.858Z,6.00
2018-11-21T05:20:56.950Z,6.00
2018-11-21T05:25:08.669Z,5.80
2018-11-21T05:29:19.811Z,5.80
2018-11-21T05:33:30.726Z,5.90
2018-11-21T05:37:41.654Z,6.00
2018-11-21T05:41:52.524Z,5.90
2018-11-21T05:46:03.860Z,5.70
2018-11-21T05:50:14.908Z,5.60
2018-11-21T05:54:25.940Z,5.60
2018-11-21T05:58:37.060Z,5.80
2018-11-21T06:02:48.010Z,5.70
2018-11-21T06:06:59.176Z,5.70
2018-11-21T06:11:10.658Z,5.60
2018-11-21T06:15:22.218Z,5.70
2018-11-21T06:19:33.336Z,5.70
2018-11-21T06:23:44.096Z,5.60
2018-11-21T06:27:55.420Z,5.60
2018-11-21T06:32:07.799Z,5.50
2018-11-21T06:36:18.830Z,5.60
2018-11-21T06:40:29.810Z,5.60
2018-11-21T06:44:40.746Z,5.70
2018-11-21T06:48:52.009Z,5.60
2018-11-21T06:53:03.065Z,5.40
2018-11-21T06:57:14.152Z,5.40
2018-11-21T07:01:25.078Z,5.50
2018-11-21T07:05:36.037Z,5.40
2018-11-21T07:09:46.941Z,5.40
2018-11-21T07:13:58.120Z,5.30
2018-11-21T07:18:10.425Z,5.30
2018-11-21T07:22:21.565Z,5.40
2018-11-21T07:26:33.672Z,5.40
2018-11-21T07:30:45.777Z,5.30
2018-11-21T07:34:57.214Z,5.30
2018-11-21T07:39:10.189Z,5.20
2018-11-21T07:43:21.085Z,5.20
2018-11-21T07:47:32.060Z,5.20
2018-11-21T07:51:43.356Z,5.20
2018-11-21T07:55:55.467Z,5.10
2018-11-21T08:01:02.421Z,5.00
2018-11-21T08:05:18.676Z,5.00
2018-11-21T08:10:00.605Z,5.00
2018-11-21T08:14:42.923Z,4.90
2018-11-21T08:19:10.308Z,4.90
2018-11-21T08:23:38.631Z,4.80
2018-11-21T08:28:07.067Z,4.80
2018-11-21T08:32:17.967Z,4.80
2018-11-21T08:36:29.156Z,4.90
2018-11-21T08:40:41.401Z,4.80
2018-11-21T08:44:52.405Z,4.70
2018-11-21T08:49:03.485Z,4.70
2018-11-21T08:53:14.416Z,4.80
2018-11-21T08:57:25.693Z,5.00
2018-11-21T09:01:36.791Z,5.10
2018-11-21T09:05:47.899Z,5.20
2018-11-21T09:09:58.844Z,5.40
2018-11-21T09:14:09.917Z,5.40
2018-11-21T09:18:21.109Z,5.60
2018-11-21T09:22:33.957Z,5.70
2018-11-21T09:26:44.959Z,5.80
2018-11-21T09:30:56.052Z,5.90
2018-11-21T09:35:08.300Z,6.00
2018-11-21T09:39:19.432Z,6.10
2018-11-21T09:43:30.308Z,6.20
2018-11-21T09:47:41.515Z,6.30
2018-11-21T09:51:52.517Z,6.40
2018-11-21T09:56:03.600Z,6.50
2018-11-21T10:00:51.525Z,6.60
2018-11-21T10:05:02.428Z,6.80
2018-11-21T10:09:16.200Z,7.10
2018-11-21T10:13:27.419Z,7.30
2018-11-21T10:17:38.445Z,7.50
2018-11-21T10:21:49.534Z,7.80
2018-11-21T10:26:01.482Z,8.00
2018-11-21T10:30:12.606Z,8.20
2018-11-21T10:34:23.628Z,8.50
2018-11-21T10:38:34.612Z,8.60
2018-11-21T10:42:45.572Z,8.50
2018-11-21T10:46:56.560Z,8.30
2018-11-21T10:51:08.085Z,8.20
2018-11-21T10:55:22.319Z,8.10
2018-11-21T10:59:33.237Z,8.20
2018-11-21T11:05:08.559Z,8.40
2018-11-21T11:09:38.800Z,8.70
2018-11-21T11:14:22.358Z,9.20
2018-11-21T11:19:00.669Z,9.60
2018-11-21T11:23:27.595Z,10.00
2018-11-21T11:27:57.654Z,10.30
2018-11-21T11:32:41.095Z,10.70
2018-11-21T11:37:11.021Z,10.90
2018-11-21T11:41:41.664Z,11.00
2018-11-21T11:46:19.066Z,10.70
2018-11-21T11:51:05.375Z,10.50
2018-11-21T11:55:42.776Z,10.80
2018-11-21T12:00:17.002Z,11.20
2018-11-21T12:04:48.257Z,11.20
2018-11-21T12:09:19.721Z,11.30
2018-11-21T12:13:51.285Z,11.40
2018-11-21T12:18:28.607Z,11.40
2018-11-21T12:23:06.303Z,11.10
2018-11-21T12:27:37.657Z,10.90
2018-11-21T12:32:18.329Z,10.60
2018-11-21T12:36:55.151Z,10.30
2018-11-21T12:41:35.280Z,10.10
2018-11-21T12:45:56.754Z,10.00
2018-11-21T12:50:32.470Z,9.90
2018-11-21T12:55:03.731Z,9.80
2018-11-21T12:59:37.956Z,9.70
2018-11-21T13:04:08.392Z,9.80
2018-11-21T13:08:39.958Z,9.70
2018-11-21T13:13:08.874Z,9.70
2018-11-21T13:17:40.425Z,9.70
2018-11-21T13:22:11.780Z,9.60
2018-11-21T13:26:42.117Z,9.70
2018-11-21T13:31:12.248Z,9.90
2018-11-21T13:35:42.288Z,9.90
2018-11-21T13:40:13.328Z,9.80
2018-11-21T13:44:49.781Z,9.80
2018-11-21T13:49:20.449Z,9.70
2018-11-21T13:53:51.604Z,9.40
2018-11-21T13:58:04.665Z,9.10
2018-11-21T14:02:17.851Z,9.10
2018-11-21T14:06:30.815Z,9.00
2018-11-21T14:10:43.760Z,8.90
2018-11-21T14:14:56.483Z,8.90
2018-11-21T14:19:09.604Z,8.80
2018-11-21T14:23:22.755Z,9.10
2018-11-21T14:27:35.545Z,9.40
2018-11-21T14:31:49.080Z,9.50
2018-11-21T14:36:02.518Z,9.50
2018-11-21T14:40:17.844Z,9.40
2018-11-21T14:44:30.849Z,9.30
2018-11-21T14:48:45.087Z,9.10
2018-11-21T14:52:58.290Z,9.00
2018-11-21T14:57:11.329Z,9.00
2018-11-21T15:01:24.083Z,9.00
2018-11-21T15:05:37.092Z,8.90
2018-11-21T15:09:49.961Z,9.00
2018-11-21T15:14:02.994Z,9.00
2018-11-21T15:18:16.842Z,9.10
2018-11-21T15:22:30.030Z,9.10
2018-11-21T15:26:44.089Z,9.10
2018-11-21T15:30:57.122Z,9.10
2018-11-21T15:35:09.904Z,9.10
2018-11-21T15:39:22.923Z,9.20
2018-11-21T15:43:35.620Z,9.20
2018-11-21T15:47:51.461Z,9.20
2018-11-21T15:52:04.236Z,9.20
2018-11-21T15:56:17.394Z,9.20
2018-11-21T16:00:31.658Z,9.10
2018-11-21T16:04:48.087Z,9.20
2018-11-21T16:08:58.108Z,9.10
2018-11-21T16:13:10.964Z,9.10
2018-11-21T16:17:24.351Z,9.10
2018-11-21T16:21:37.411Z,9.00
2018-11-21T16:25:50.215Z,9.00
2018-11-21T16:30:03.240Z,9.00
2018-11-21T16:34:15.879Z,8.80
2018-11-21T16:38:28.966Z,8.80
2018-11-21T16:42:42.102Z,8.70
2018-11-21T16:46:56.094Z,8.60
2018-11-21T16:51:10.152Z,8.60
2018-11-21T16:55:24.390Z,8.50
2018-11-21T16:59:38.679Z,8.50
2018-11-21T17:03:54.886Z,8.40
2018-11-21T17:08:08.286Z,8.40
2018-11-21T17:12:22.567Z,8.30
2018-11-21T17:16:38.140Z,8.20
2018-11-21T17:20:55.683Z,8.20
2018-11-21T17:25:20.883Z,8.10
2018-11-21T17:29:59.456Z,8.00
2018-11-21T17:34:14.021Z,8.00
2018-11-21T17:38:51.173Z,8.00
2018-11-21T17:43:29.573Z,7.90
2018-11-21T17:47:48.682Z,8.00
2018-11-21T17:52:12.143Z,7.80
2018-11-21T17:56:38.747Z,7.70
2018-11-21T18:01:08.308Z,7.50
2018-11-21T18:05:44.385Z,7.40
2018-11-21T18:10:12.053Z,7.30
2018-11-21T18:14:31.574Z,7.10
2018-11-21T18:18:46.386Z,6.90
2018-11-21T18:23:00.228Z,6.90
2018-11-21T18:27:19.375Z,6.90
2018-11-21T18:31:34.255Z,6.90
2018-11-21T18:35:59.937Z,6.80
2018-11-21T18:40:24.704Z,6.70
2018-11-21T18:44:49.889Z,6.60
2018-11-21T18:49:09.531Z,6.50
2018-11-21T18:53:47.050Z,6.40
2018-11-21T18:58:49.578Z,6.30
2018-11-21T19:03:05.040Z,6.30
2018-11-21T19:07:27.563Z,6.10
2018-11-21T19:11:58.104Z,6.10
2018-11-21T19:16:21.604Z,6.10
2018-11-21T19:20:40.265Z,6.00
2018-11-21T19:25:09.557Z,6.00
2018-11-21T19:29:27.924Z,5.80
2018-11-21T19:33:42.092Z,5.80
2018-11-21T19:37:58.528Z,5.80
2018-11-21T19:42:25.164Z,5.80
2018-11-21T19:46:46.856Z,5.70
2018-11-21T19:51:14.326Z,5.60
2018-11-21T19:55:33.409Z,5.50
2018-11-21T20:00:11.617Z,5.40
2018-11-21T20:04:49.430Z,5.40
2018-11-21T20:09:11.596Z,5.40
2018-11-21T20:13:28.689Z,5.30
2018-11-21T20:18:07.287Z,5.20
2018-11-21T20:22:33.497Z,5.20
2018-11-21T20:27:00.598Z,5.20
2018-11-21T20:31:22.570Z,5.00
2018-11-21T20:35:59.814Z,4.90
2018-11-21T20:40:31.990Z,4.90
2018-11-21T20:45:00.860Z,5.00
2018-11-21T20:49:28.343Z,5.00
2018-11-21T20:53:54.296Z,4.90
2018-11-21T20:58:27.506Z,4.90
2018-11-21T21:02:48.328Z,4.90
2018-11-21T21:07:08.371Z,5.00
2018-11-21T21:11:42.703Z,5.10
2018-11-21T21:15:57.891Z,5.10
2018-11-21T21:20:21.231Z,5.10
2018-11-21T21:24:49.841Z,5.20
2018-11-21T21:29:17.552Z,5.20
2018-11-21T21:33:47.718Z,5.20
2018-11-21T21:38:09.119Z,5.20
2018-11-21T21:42:30.937Z,5.10
2018-11-21T21:46:49.021Z,5.20
2018-11-21T21:51:11.950Z,5.20
2018-11-21T21:55:27.085Z,5.20
2018-11-21T21:59:44.763Z,5.20
2018-11-21T22:04:04.262Z,5.10
2018-11-21T22:08:23.534Z,5.10
2018-11-21T22:12:37.567Z,5.20
2018-11-21T22:16:50.691Z,5.20
2018-11-21T22:21:03.501Z,5.10
2018-11-21T22:25:16.462Z,5.00
2018-11-21T22:29:29.616Z,5.00
2018-11-21T22:33:42.494Z,5.00
2018-11-21T22:37:56.322Z,4.90
2018-11-21T22:42:09.398Z,4.80
2018-11-21T22:46:22.470Z,4.60
2018-11-21T22:50:35.307Z,4.50
2018-11-21T22:54:48.273Z,4.40
2018-11-21T22:59:01.458Z,4.30
2018-11-21T23:03:15.339Z,4.30
2018-11-21T23:07:28.538Z,4.20
2018-11-21T23:11:41.387Z,4.10
2018-11-21T23:15:54.414Z,4.10
2018-11-21T23:20:08.263Z,4.10
2018-11-21T23:24:21.278Z,4.10
2018-11-21T23:28:34.060Z,4.00
2018-11-21T23:32:47.390Z,3.90
2018-11-21T23:37:00.470Z,3.90
2018-11-21T23:41:13.507Z,3.90
2018-11-21T23:45:26.496Z,3.90
2018-11-21T23:49:39.663Z,3.80
2018-11-21T23:53:52.437Z,3.90
2018-11-21T23:58:05.563Z,3.90
